sensor_id;sensor_type;location;lat;lon;timestamp;P1;durP1;ratioP1;P2;durP2;ratioP2
36995;SDS011;22905;50.340;10.776;2023-04-24T00:03:12;3.20;;;1.80;;
36995;SDS011;22905;50.340;10.776;2023-04-24T00:08:13;3.10;;;2.17;;
36995;SDS011;22905;50.340;10.776;2023-04-24T00:13:13;3.75;;;2.47;;
36995;SDS011;22905;50.340;10.776;2023-04-24T00:18:13;2.83;;;2.00;;
36995;SDS011;22905;50.340;10.776;2023-04-24T00:23:14;6.35;;;2.88;;
36995;SDS011;22905;50.340;10.776;2023-04-24T00:28:14;3.92;;;2.40;;
36995;SDS011;22905;50.340;10.776;2023-04-24T00:33:15;5.22;;;2.80;;
36995;SDS011;22905;50.340;10.776;2023-04-24T00:38:15;5.53;;;3.00;;
36995;SDS011;22905;50.340;10.776;2023-04-24T00:43:16;8.53;;;3.33;;
36995;SDS011;22905;50.340;10.776;2023-04-24T00:48:16;8.00;;;3.22;;
36995;SDS011;22905;50.340;10.776;2023-04-24T00:53:17;3.20;;;2.55;;
36995;SDS011;22905;50.340;10.776;2023-04-24T00:58:17;3.70;;;2.67;;
36995;SDS011;22905;50.340;10.776;2023-04-24T01:03:21;6.43;;;3.45;;
36995;SDS011;22905;50.340;10.776;2023-04-24T01:08:23;5.07;;;3.40;;
36995;SDS011;22905;50.340;10.776;2023-04-24T01:13:24;5.65;;;3.78;;
36995;SDS011;22905;50.340;10.776;2023-04-24T01:18:26;4.00;;;3.15;;
36995;SDS011;22905;50.340;10.776;2023-04-24T01:23:27;7.18;;;3.60;;
36995;SDS011;22905;50.340;10.776;2023-04-24T01:28:28;5.80;;;3.03;;
36995;SDS011;22905;50.340;10.776;2023-04-24T01:33:28;5.05;;;3.15;;
36995;SDS011;22905;50.340;10.776;2023-04-24T01:38:29;5.45;;;2.75;;
36995;SDS011;22905;50.340;10.776;2023-04-24T01:43:29;3.80;;;2.90;;
36995;SDS011;22905;50.340;10.776;2023-04-24T01:48:29;4.78;;;3.00;;
36995;SDS011;22905;50.340;10.776;2023-04-24T01:53:30;4.50;;;3.17;;
36995;SDS011;22905;50.340;10.776;2023-04-24T01:58:31;4.63;;;2.88;;
36995;SDS011;22905;50.340;10.776;2023-04-24T02:03:31;3.42;;;2.28;;
36995;SDS011;22905;50.340;10.776;2023-04-24T02:08:31;8.30;;;3.95;;
36995;SDS011;22905;50.340;10.776;2023-04-24T02:13:32;3.70;;;2.35;;
36995;SDS011;22905;50.340;10.776;2023-04-24T02:18:32;3.22;;;2.28;;
36995;SDS011;22905;50.340;10.776;2023-04-24T02:23:32;3.13;;;2.28;;
36995;SDS011;22905;50.340;10.776;2023-04-24T02:28:33;4.93;;;2.00;;
36995;SDS011;22905;50.340;10.776;2023-04-24T02:33:33;3.17;;;1.90;;
36995;SDS011;22905;50.340;10.776;2023-04-24T02:38:33;4.57;;;2.20;;
36995;SDS011;22905;50.340;10.776;2023-04-24T02:43:33;3.65;;;1.73;;
36995;SDS011;22905;50.340;10.776;2023-04-24T02:48:34;5.13;;;1.80;;
36995;SDS011;22905;50.340;10.776;2023-04-24T02:53:34;3.17;;;2.30;;
36995;SDS011;22905;50.340;10.776;2023-04-24T02:58:34;2.63;;;2.10;;
36995;SDS011;22905;50.340;10.776;2023-04-24T03:03:35;3.03;;;1.88;;
36995;SDS011;22905;50.340;10.776;2023-04-24T03:08:36;3.85;;;1.90;;
36995;SDS011;22905;50.340;10.776;2023-04-24T03:13:37;2.00;;;1.50;;
36995;SDS011;22905;50.340;10.776;2023-04-24T03:18:37;2.95;;;2.00;;
36995;SDS011;22905;50.340;10.776;2023-04-24T03:23:38;5.50;;;1.70;;
36995;SDS011;22905;50.340;10.776;2023-04-24T03:28:38;2.38;;;1.38;;
36995;SDS011;22905;50.340;10.776;2023-04-24T03:33:38;2.40;;;2.20;;
36995;SDS011;22905;50.340;10.776;2023-04-24T03:38:39;10.43;;;2.00;;
36995;SDS011;22905;50.340;10.776;2023-04-24T03:43:39;1.58;;;1.48;;
36995;SDS011;22905;50.340;10.776;2023-04-24T03:48:39;3.78;;;1.70;;
36995;SDS011;22905;50.340;10.776;2023-04-24T03:53:40;2.20;;;1.90;;
36995;SDS011;22905;50.340;10.776;2023-04-24T03:58:40;2.65;;;1.63;;
36995;SDS011;22905;50.340;10.776;2023-04-24T04:03:41;4.63;;;1.60;;
36995;SDS011;22905;50.340;10.776;2023-04-24T04:08:41;5.13;;;1.70;;
36995;SDS011;22905;50.340;10.776;2023-04-24T04:13:41;2.15;;;1.48;;
36995;SDS011;22905;50.340;10.776;2023-04-24T04:18:42;6.97;;;1.77;;
36995;SDS011;22905;50.340;10.776;2023-04-24T04:23:43;1.60;;;1.35;;
36995;SDS011;22905;50.340;10.776;2023-04-24T04:28:43;2.47;;;1.20;;
36995;SDS011;22905;50.340;10.776;2023-04-24T04:33:44;2.40;;;1.45;;
36995;SDS011;22905;50.340;10.776;2023-04-24T04:38:44;3.80;;;1.80;;
36995;SDS011;22905;50.340;10.776;2023-04-24T04:43:53;2.17;;;1.40;;
36995;SDS011;22905;50.340;10.776;2023-04-24T04:48:53;5.53;;;1.83;;
36995;SDS011;22905;50.340;10.776;2023-04-24T04:53:54;3.80;;;1.58;;
36995;SDS011;22905;50.340;10.776;2023-04-24T04:58:54;3.25;;;1.70;;
36995;SDS011;22905;50.340;10.776;2023-04-24T05:03:55;2.63;;;1.33;;
36995;SDS011;22905;50.340;10.776;2023-04-24T05:08:55;3.10;;;1.33;;
36995;SDS011;22905;50.340;10.776;2023-04-24T05:13:57;3.10;;;1.20;;
36995;SDS011;22905;50.340;10.776;2023-04-24T05:18:57;1.52;;;1.20;;
36995;SDS011;22905;50.340;10.776;2023-04-24T05:23:57;2.92;;;1.10;;
36995;SDS011;22905;50.340;10.776;2023-04-24T05:28:57;6.95;;;1.63;;
36995;SDS011;22905;50.340;10.776;2023-04-24T05:33:58;3.80;;;1.50;;
36995;SDS011;22905;50.340;10.776;2023-04-24T05:38:58;3.73;;;1.17;;
36995;SDS011;22905;50.340;10.776;2023-04-24T05:43:58;1.95;;;1.23;;
36995;SDS011;22905;50.340;10.776;2023-04-24T05:48:59;5.60;;;1.30;;
36995;SDS011;22905;50.340;10.776;2023-04-24T05:53:59;3.72;;;1.27;;
36995;SDS011;22905;50.340;10.776;2023-04-24T05:58:59;2.28;;;1.33;;
36995;SDS011;22905;50.340;10.776;2023-04-24T06:04:00;4.70;;;2.10;;
36995;SDS011;22905;50.340;10.776;2023-04-24T06:09:00;2.50;;;1.60;;
36995;SDS011;22905;50.340;10.776;2023-04-24T06:14:01;2.23;;;1.23;;
36995;SDS011;22905;50.340;10.776;2023-04-24T06:19:01;5.83;;;1.50;;
36995;SDS011;22905;50.340;10.776;2023-04-24T06:24:01;2.05;;;1.60;;
36995;SDS011;22905;50.340;10.776;2023-04-24T06:29:04;3.22;;;1.20;;
36995;SDS011;22905;50.340;10.776;2023-04-24T06:34:05;1.40;;;1.30;;
36995;SDS011;22905;50.340;10.776;2023-04-24T06:39:05;1.90;;;1.40;;
36995;SDS011;22905;50.340;10.776;2023-04-24T06:44:05;3.35;;;1.20;;
36995;SDS011;22905;50.340;10.776;2023-04-24T06:49:06;4.15;;;1.30;;
36995;SDS011;22905;50.340;10.776;2023-04-24T06:54:06;8.85;;;3.80;;
36995;SDS011;22905;50.340;10.776;2023-04-24T06:59:06;4.10;;;2.13;;
36995;SDS011;22905;50.340;10.776;2023-04-24T07:04:07;3.17;;;1.50;;
36995;SDS011;22905;50.340;10.776;2023-04-24T07:09:07;2.17;;;1.20;;
36995;SDS011;22905;50.340;10.776;2023-04-24T07:14:13;3.17;;;1.37;;
36995;SDS011;22905;50.340;10.776;2023-04-24T07:24:46;4.78;;;1.52;;
36995;SDS011;22905;50.340;10.776;2023-04-24T07:29:46;2.58;;;1.23;;
36995;SDS011;22905;50.340;10.776;2023-04-24T07:34:46;1.20;;;1.10;;
36995;SDS011;22905;50.340;10.776;2023-04-24T07:39:47;1.37;;;1.23;;
36995;SDS011;22905;50.340;10.776;2023-04-24T07:44:47;4.00;;;1.38;;
36995;SDS011;22905;50.340;10.776;2023-04-24T07:49:47;1.63;;;1.27;;
36995;SDS011;22905;50.340;10.776;2023-04-24T07:54:48;1.40;;;1.30;;
36995;SDS011;22905;50.340;10.776;2023-04-24T07:59:49;3.00;;;1.20;;
36995;SDS011;22905;50.340;10.776;2023-04-24T08:04:49;1.55;;;1.30;;
36995;SDS011;22905;50.340;10.776;2023-04-24T08:09:50;2.13;;;1.30;;
36995;SDS011;22905;50.340;10.776;2023-04-24T08:14:50;1.38;;;1.17;;
36995;SDS011;22905;50.340;10.776;2023-04-24T08:19:51;1.60;;;1.00;;
36995;SDS011;22905;50.340;10.776;2023-04-24T08:25:01;1.58;;;1.40;;
36995;SDS011;22905;50.340;10.776;2023-04-24T08:30:01;3.00;;;1.80;;
36995;SDS011;22905;50.340;10.776;2023-04-24T08:35:02;2.85;;;1.63;;
36995;SDS011;22905;50.340;10.776;2023-04-24T08:40:05;3.38;;;1.20;;
36995;SDS011;22905;50.340;10.776;2023-04-24T08:45:09;2.28;;;1.42;;
36995;SDS011;22905;50.340;10.776;2023-04-24T08:50:10;2.33;;;2.03;;
36995;SDS011;22905;50.340;10.776;2023-04-24T08:55:11;2.00;;;1.60;;
36995;SDS011;22905;50.340;10.776;2023-04-24T09:00:12;2.40;;;2.20;;
36995;SDS011;22905;50.340;10.776;2023-04-24T09:05:13;1.98;;;1.33;;
36995;SDS011;22905;50.340;10.776;2023-04-24T09:10:13;1.98;;;1.45;;
36995;SDS011;22905;50.340;10.776;2023-04-24T09:15:15;2.70;;;1.40;;
36995;SDS011;22905;50.340;10.776;2023-04-24T09:20:15;1.95;;;1.40;;
36995;SDS011;22905;50.340;10.776;2023-04-24T09:25:16;1.98;;;1.50;;
36995;SDS011;22905;50.340;10.776;2023-04-24T09:30:18;2.17;;;1.50;;
36995;SDS011;22905;50.340;10.776;2023-04-24T09:35:21;3.42;;;2.10;;
36995;SDS011;22905;50.340;10.776;2023-04-24T09:40:21;1.40;;;1.30;;
36995;SDS011;22905;50.340;10.776;2023-04-24T09:45:22;1.58;;;1.30;;
36995;SDS011;22905;50.340;10.776;2023-04-24T09:50:29;1.52;;;1.20;;
36995;SDS011;22905;50.340;10.776;2023-04-24T09:55:31;1.52;;;1.02;;
36995;SDS011;22905;50.340;10.776;2023-04-24T10:00:32;4.00;;;1.17;;
36995;SDS011;22905;50.340;10.776;2023-04-24T10:05:33;2.47;;;1.20;;
36995;SDS011;22905;50.340;10.776;2023-04-24T10:10:37;1.65;;;1.30;;
36995;SDS011;22905;50.340;10.776;2023-04-24T10:15:39;2.10;;;1.40;;
36995;SDS011;22905;50.340;10.776;2023-04-24T10:20:40;2.03;;;1.30;;
36995;SDS011;22905;50.340;10.776;2023-04-24T10:25:41;7.77;;;1.40;;
36995;SDS011;22905;50.340;10.776;2023-04-24T10:30:42;2.28;;;1.30;;
36995;SDS011;22905;50.340;10.776;2023-04-24T10:35:44;1.75;;;1.60;;
36995;SDS011;22905;50.340;10.776;2023-04-24T10:40:47;2.92;;;1.65;;
36995;SDS011;22905;50.340;10.776;2023-04-24T10:46:06;3.53;;;1.73;;
36995;SDS011;22905;50.340;10.776;2023-04-24T10:51:10;2.33;;;1.38;;
36995;SDS011;22905;50.340;10.776;2023-04-24T10:56:11;4.13;;;1.73;;
36995;SDS011;22905;50.340;10.776;2023-04-24T11:01:33;6.10;;;1.80;;
36995;SDS011;22905;50.340;10.776;2023-04-24T11:06:34;3.72;;;1.25;;
36995;SDS011;22905;50.340;10.776;2023-04-24T11:16:52;2.67;;;1.92;;
36995;SDS011;22905;50.340;10.776;2023-04-24T11:22:01;2.38;;;2.17;;
36995;SDS011;22905;50.340;10.776;2023-04-24T11:32:23;2.05;;;1.55;;
36995;SDS011;22905;50.340;10.776;2023-04-24T11:37:28;3.00;;;1.88;;
36995;SDS011;22905;50.340;10.776;2023-04-24T11:42:34;1.95;;;1.50;;
36995;SDS011;22905;50.340;10.776;2023-04-24T11:47:38;2.78;;;1.58;;
36995;SDS011;22905;50.340;10.776;2023-04-24T11:52:40;2.58;;;1.95;;
36995;SDS011;22905;50.340;10.776;2023-04-24T11:57:44;2.95;;;2.03;;
36995;SDS011;22905;50.340;10.776;2023-04-24T12:02:46;3.25;;;1.42;;
36995;SDS011;22905;50.340;10.776;2023-04-24T12:07:46;3.90;;;1.98;;
36995;SDS011;22905;50.340;10.776;2023-04-24T12:12:47;2.87;;;1.70;;
36995;SDS011;22905;50.340;10.776;2023-04-24T12:17:47;2.85;;;1.88;;
36995;SDS011;22905;50.340;10.776;2023-04-24T12:33:04;1.67;;;1.35;;
36995;SDS011;22905;50.340;10.776;2023-04-24T12:38:06;2.63;;;1.92;;
36995;SDS011;22905;50.340;10.776;2023-04-24T12:48:15;2.45;;;1.70;;
36995;SDS011;22905;50.340;10.776;2023-04-24T12:53:15;4.20;;;1.40;;
36995;SDS011;22905;50.340;10.776;2023-04-24T12:58:16;1.30;;;1.20;;
36995;SDS011;22905;50.340;10.776;2023-04-24T13:03:17;2.08;;;1.60;;
36995;SDS011;22905;50.340;10.776;2023-04-24T13:08:17;3.58;;;1.75;;
36995;SDS011;22905;50.340;10.776;2023-04-24T13:13:18;1.57;;;1.47;;
36995;SDS011;22905;50.340;10.776;2023-04-24T13:18:18;2.03;;;1.17;;
36995;SDS011;22905;50.340;10.776;2023-04-24T13:23:18;2.67;;;1.17;;
36995;SDS011;22905;50.340;10.776;2023-04-24T13:28:19;1.23;;;1.00;;
36995;SDS011;22905;50.340;10.776;2023-04-24T13:33:19;1.67;;;1.20;;
36995;SDS011;22905;50.340;10.776;2023-04-24T13:38:19;1.27;;;0.90;;
36995;SDS011;22905;50.340;10.776;2023-04-24T13:43:21;2.67;;;2.10;;
36995;SDS011;22905;50.340;10.776;2023-04-24T13:48:21;3.97;;;1.87;;
36995;SDS011;22905;50.340;10.776;2023-04-24T13:53:25;2.00;;;1.80;;
36995;SDS011;22905;50.340;10.776;2023-04-24T13:58:43;1.38;;;1.27;;
36995;SDS011;22905;50.340;10.776;2023-04-24T14:03:44;2.67;;;1.17;;
36995;SDS011;22905;50.340;10.776;2023-04-24T14:08:44;1.63;;;0.83;;
36995;SDS011;22905;50.340;10.776;2023-04-24T14:13:45;0.80;;;0.70;;
36995;SDS011;22905;50.340;10.776;2023-04-24T14:18:45;3.03;;;1.52;;
36995;SDS011;22905;50.340;10.776;2023-04-24T14:23:46;0.90;;;0.77;;
36995;SDS011;22905;50.340;10.776;2023-04-24T14:28:46;0.63;;;0.63;;
36995;SDS011;22905;50.340;10.776;2023-04-24T14:33:46;0.82;;;0.63;;
36995;SDS011;22905;50.340;10.776;2023-04-24T14:38:47;1.33;;;0.98;;
36995;SDS011;22905;50.340;10.776;2023-04-24T14:43:47;1.73;;;1.37;;
36995;SDS011;22905;50.340;10.776;2023-04-24T14:48:47;3.75;;;1.80;;
36995;SDS011;22905;50.340;10.776;2023-04-24T14:53:48;2.03;;;1.60;;
36995;SDS011;22905;50.340;10.776;2023-04-24T14:58:48;1.50;;;1.40;;
36995;SDS011;22905;50.340;10.776;2023-04-24T15:03:48;1.97;;;1.60;;
36995;SDS011;22905;50.340;10.776;2023-04-24T15:08:49;4.90;;;1.67;;
36995;SDS011;22905;50.340;10.776;2023-04-24T15:13:49;3.85;;;3.08;;
36995;SDS011;22905;50.340;10.776;2023-04-24T15:18:50;4.30;;;3.10;;
36995;SDS011;22905;50.340;10.776;2023-04-24T15:23:50;5.25;;;3.05;;
36995;SDS011;22905;50.340;10.776;2023-04-24T15:28:50;3.63;;;1.60;;
36995;SDS011;22905;50.340;10.776;2023-04-24T15:33:51;1.45;;;1.17;;
36995;SDS011;22905;50.340;10.776;2023-04-24T15:38:52;3.20;;;1.13;;
36995;SDS011;22905;50.340;10.776;2023-04-24T15:43:52;1.17;;;1.00;;
36995;SDS011;22905;50.340;10.776;2023-04-24T15:48:52;1.42;;;1.15;;
36995;SDS011;22905;50.340;10.776;2023-04-24T15:53:53;1.35;;;1.25;;
36995;SDS011;22905;50.340;10.776;2023-04-24T15:58:53;1.40;;;1.23;;
36995;SDS011;22905;50.340;10.776;2023-04-24T16:03:54;0.93;;;0.93;;
36995;SDS011;22905;50.340;10.776;2023-04-24T16:08:54;2.50;;;1.40;;
36995;SDS011;22905;50.340;10.776;2023-04-24T16:13:54;3.37;;;1.77;;
36995;SDS011;22905;50.340;10.776;2023-04-24T16:18:55;1.65;;;1.52;;
36995;SDS011;22905;50.340;10.776;2023-04-24T16:23:55;2.70;;;1.92;;
36995;SDS011;22905;50.340;10.776;2023-04-24T16:28:55;1.90;;;1.50;;
36995;SDS011;22905;50.340;10.776;2023-04-24T16:33:56;1.90;;;1.60;;
36995;SDS011;22905;50.340;10.776;2023-04-24T16:38:56;3.38;;;2.53;;
36995;SDS011;22905;50.340;10.776;2023-04-24T16:43:57;3.15;;;2.40;;
36995;SDS011;22905;50.340;10.776;2023-04-24T16:48:57;2.80;;;2.03;;
36995;SDS011;22905;50.340;10.776;2023-04-24T16:54:00;4.32;;;3.00;;
36995;SDS011;22905;50.340;10.776;2023-04-24T16:59:01;4.68;;;2.35;;
36995;SDS011;22905;50.340;10.776;2023-04-24T17:04:01;3.43;;;2.77;;
36995;SDS011;22905;50.340;10.776;2023-04-24T17:09:02;4.13;;;2.43;;
36995;SDS011;22905;50.340;10.776;2023-04-24T17:14:02;4.00;;;2.50;;
36995;SDS011;22905;50.340;10.776;2023-04-24T17:19:03;4.20;;;2.78;;
36995;SDS011;22905;50.340;10.776;2023-04-24T17:24:04;4.10;;;2.55;;
36995;SDS011;22905;50.340;10.776;2023-04-24T17:29:04;3.08;;;2.22;;
36995;SDS011;22905;50.340;10.776;2023-04-24T17:34:05;4.33;;;2.43;;
36995;SDS011;22905;50.340;10.776;2023-04-24T17:39:06;6.45;;;2.47;;
36995;SDS011;22905;50.340;10.776;2023-04-24T17:44:09;4.28;;;2.88;;
36995;SDS011;22905;50.340;10.776;2023-04-24T17:49:09;5.07;;;2.77;;
36995;SDS011;22905;50.340;10.776;2023-04-24T17:54:19;5.73;;;3.13;;
36995;SDS011;22905;50.340;10.776;2023-04-24T17:59:28;5.57;;;3.67;;
36995;SDS011;22905;50.340;10.776;2023-04-24T18:04:28;5.55;;;2.83;;
36995;SDS011;22905;50.340;10.776;2023-04-24T18:09:29;7.47;;;2.92;;
36995;SDS011;22905;50.340;10.776;2023-04-24T18:14:29;9.00;;;2.63;;
36995;SDS011;22905;50.340;10.776;2023-04-24T18:19:30;5.80;;;3.35;;
36995;SDS011;22905;50.340;10.776;2023-04-24T18:24:30;5.23;;;3.10;;
36995;SDS011;22905;50.340;10.776;2023-04-24T18:29:30;3.70;;;2.53;;
36995;SDS011;22905;50.340;10.776;2023-04-24T18:34:31;6.05;;;2.88;;
36995;SDS011;22905;50.340;10.776;2023-04-24T18:39:31;2.55;;;2.33;;
36995;SDS011;22905;50.340;10.776;2023-04-24T18:44:31;11.80;;;3.63;;
36995;SDS011;22905;50.340;10.776;2023-04-24T18:49:32;3.28;;;2.75;;
36995;SDS011;22905;50.340;10.776;2023-04-24T18:54:32;7.00;;;3.40;;
36995;SDS011;22905;50.340;10.776;2023-04-24T18:59:32;7.20;;;3.35;;
36995;SDS011;22905;50.340;10.776;2023-04-24T19:04:33;7.60;;;3.60;;
36995;SDS011;22905;50.340;10.776;2023-04-24T19:09:42;4.72;;;3.67;;
36995;SDS011;22905;50.340;10.776;2023-04-24T19:14:42;6.75;;;3.40;;
36995;SDS011;22905;50.340;10.776;2023-04-24T19:19:43;7.40;;;3.80;;
36995;SDS011;22905;50.340;10.776;2023-04-24T19:24:43;8.32;;;3.55;;
36995;SDS011;22905;50.340;10.776;2023-04-24T19:29:43;5.35;;;3.38;;
36995;SDS011;22905;50.340;10.776;2023-04-24T19:34:44;13.70;;;6.47;;
36995;SDS011;22905;50.340;10.776;2023-04-24T19:39:45;10.38;;;5.32;;
36995;SDS011;22905;50.340;10.776;2023-04-24T19:44:45;9.30;;;4.60;;
36995;SDS011;22905;50.340;10.776;2023-04-24T19:49:45;7.18;;;3.53;;
36995;SDS011;22905;50.340;10.776;2023-04-24T19:54:46;7.13;;;4.47;;
36995;SDS011;22905;50.340;10.776;2023-04-24T19:59:46;10.50;;;5.60;;
36995;SDS011;22905;50.340;10.776;2023-04-24T20:04:46;9.27;;;4.67;;
36995;SDS011;22905;50.340;10.776;2023-04-24T20:09:47;6.38;;;3.50;;
36995;SDS011;22905;50.340;10.776;2023-04-24T20:14:52;5.93;;;3.58;;
36995;SDS011;22905;50.340;10.776;2023-04-24T20:19:52;6.50;;;3.40;;
36995;SDS011;22905;50.340;10.776;2023-04-24T20:24:53;8.20;;;3.75;;
36995;SDS011;22905;50.340;10.776;2023-04-24T20:29:53;15.02;;;5.93;;
36995;SDS011;22905;50.340;10.776;2023-04-24T20:34:54;8.10;;;4.90;;
36995;SDS011;22905;50.340;10.776;2023-04-24T20:39:55;7.03;;;3.80;;
36995;SDS011;22905;50.340;10.776;2023-04-24T20:44:56;7.47;;;4.10;;
36995;SDS011;22905;50.340;10.776;2023-04-24T20:49:56;7.28;;;4.22;;
36995;SDS011;22905;50.340;10.776;2023-04-24T20:54:56;11.70;;;4.28;;
36995;SDS011;22905;50.340;10.776;2023-04-24T20:59:57;9.33;;;3.90;;
36995;SDS011;22905;50.340;10.776;2023-04-24T21:04:57;7.55;;;4.47;;
36995;SDS011;22905;50.340;10.776;2023-04-24T21:09:57;7.97;;;3.97;;
36995;SDS011;22905;50.340;10.776;2023-04-24T21:14:59;7.18;;;4.55;;
36995;SDS011;22905;50.340;10.776;2023-04-24T21:20:00;6.50;;;4.13;;
36995;SDS011;22905;50.340;10.776;2023-04-24T21:25:00;8.60;;;3.78;;
36995;SDS011;22905;50.340;10.776;2023-04-24T21:30:05;10.77;;;4.68;;
36995;SDS011;22905;50.340;10.776;2023-04-24T21:35:08;15.15;;;7.43;;
36995;SDS011;22905;50.340;10.776;2023-04-24T21:40:09;23.75;;;8.70;;
36995;SDS011;22905;50.340;10.776;2023-04-24T21:45:12;9.38;;;5.57;;
36995;SDS011;22905;50.340;10.776;2023-04-24T21:50:12;7.72;;;4.57;;
36995;SDS011;22905;50.340;10.776;2023-04-24T21:55:13;9.50;;;5.63;;
36995;SDS011;22905;50.340;10.776;2023-04-24T22:00:13;13.13;;;5.33;;
36995;SDS011;22905;50.340;10.776;2023-04-24T22:05:14;8.40;;;5.82;;
36995;SDS011;22905;50.340;10.776;2023-04-24T22:10:17;7.82;;;5.32;;
36995;SDS011;22905;50.340;10.776;2023-04-24T22:15:18;7.18;;;4.90;;
36995;SDS011;22905;50.340;10.776;2023-04-24T22:20:23;9.85;;;4.90;;
36995;SDS011;22905;50.340;10.776;2023-04-24T22:25:24;8.52;;;5.03;;
36995;SDS011;22905;50.340;10.776;2023-04-24T22:47:35;10.00;;;5.22;;
36995;SDS011;22905;50.340;10.776;2023-04-24T22:52:35;11.13;;;5.28;;
36995;SDS011;22905;50.340;10.776;2023-04-24T22:57:35;19.83;;;7.50;;
36995;SDS011;22905;50.340;10.776;2023-04-24T23:02:36;10.30;;;5.50;;
36995;SDS011;22905;50.340;10.776;2023-04-24T23:07:37;8.95;;;5.25;;
36995;SDS011;22905;50.340;10.776;2023-04-24T23:12:37;9.67;;;4.80;;
36995;SDS011;22905;50.340;10.776;2023-04-24T23:17:38;8.48;;;5.25;;
36995;SDS011;22905;50.340;10.776;2023-04-24T23:22:38;9.50;;;5.15;;
36995;SDS011;22905;50.340;10.776;2023-04-24T23:27:39;8.02;;;5.10;;
36995;SDS011;22905;50.340;10.776;2023-04-24T23:32:39;16.00;;;5.13;;
36995;SDS011;22905;50.340;10.776;2023-04-24T23:37:39;10.60;;;4.97;;
36995;SDS011;22905;50.340;10.776;2023-04-24T23:42:40;10.10;;;5.38;;
36995;SDS011;22905;50.340;10.776;2023-04-24T23:47:40;9.67;;;5.27;;
36995;SDS011;22905;50.340;10.776;2023-04-24T23:52:40;7.75;;;5.00;;
36995;SDS011;22905;50.340;10.776;2023-04-24T23:57:41;8.85;;;5.80;;
